Time;durP1;ratioP1;P1;durP2;ratioP2;P2;SDS_P1;SDS_P2;PMS_P1;PMS_P2;Temp;Humidity;BMP_temperature;BMP_pressure;BME280_temperature;BME280_humidity;BME280_pressure;Samples;Min_cycle;Max_cycle;Signal;HPM_P1;HPM_P2
2022/03/18 00:02:22;;;;;;;28.20;13.07;;;;;;;;;;6323611;22;20261;-91
2022/03/18 00:05:28;;;;;;;29.90;14.00;;;;;;;;;;6307023;22;20156;-86
2022/03/18 00:08:35;;;;;;;27.70;12.63;;;;;;;;;;6313240;22;20173;-87
2022/03/18 00:11:46;;;;;;;30.07;13.50;;;;;;;;;;6313635;22;20169;-90
2022/03/18 00:14:52;;;;;;;23.27;11.83;;;;;;;;;;6316245;22;20188;-89
2022/03/18 00:17:59;;;;;;;36.40;14.27;;;;;;;;;;6312615;22;20169;-90
2022/03/18 00:21:07;;;;;;;27.63;13.70;;;;;;;;;;6312578;22;20169;-87
2022/03/18 00:24:12;;;;;;;30.00;13.97;;;;;;;;;;6313445;22;20189;-89
2022/03/18 00:27:20;;;;;;;32.20;13.67;;;;;;;;;;6312169;22;20165;-87
2022/03/18 00:30:26;;;;;;;29.33;13.03;;;;;;;;;;6312959;22;20169;-89
2022/03/18 00:33:33;;;;;;;31.20;14.03;;;;;;;;;;6313700;22;20160;-89
2022/03/18 00:36:39;;;;;;;30.10;14.10;;;;;;;;;;6304238;22;20166;-89
2022/03/18 00:39:45;;;;;;;29.60;14.07;;;;;;;;;;6305063;22;20149;-89
2022/03/18 00:42:52;;;;;;;32.83;13.20;;;;;;;;;;6303356;22;20248;-90
2022/03/18 00:45:57;;;;;;;34.00;13.77;;;;;;;;;;6304882;22;20177;-88
2022/03/18 00:52:26;;;;;;;31.23;14.27;;;;;;;;;;6303364;22;20184;-90
2022/03/18 00:55:31;;;;;;;37.97;14.40;;;;;;;;;;6305583;22;20152;-90
2022/03/18 00:58:37;;;;;;;31.83;13.93;;;;;;;;;;6303560;22;20207;-88
2022/03/18 01:01:42;;;;;;;32.70;14.00;;;;;;;;;;6304703;22;20662;-90
2022/03/18 01:04:49;;;;;;;28.83;14.07;;;;;;;;;;6304442;22;20235;-88
2022/03/18 01:07:54;;;;;;;29.07;13.07;;;;;;;;;;6303729;22;20170;-90
2022/03/18 01:11:01;;;;;;;33.30;13.93;;;;;;;;;;6303364;22;20627;-88
2022/03/18 01:14:07;;;;;;;29.67;13.17;;;;;;;;;;6303003;22;20162;-89
2022/03/18 01:17:16;;;;;;;28.83;13.07;;;;;;;;;;6322853;22;20206;-90
2022/03/18 01:20:21;;;;;;;29.63;14.00;;;;;;;;;;6303611;22;20246;-91
2022/03/18 01:23:26;;;;;;;27.97;12.03;;;;;;;;;;6303039;22;20656;-89
2022/03/18 01:26:31;;;;;;;28.53;12.80;;;;;;;;;;6301523;22;20161;-88
2022/03/18 01:29:38;;;;;;;31.93;13.80;;;;;;;;;;6303044;22;20158;-91
2022/03/18 01:32:43;;;;;;;33.27;14.13;;;;;;;;;;6302197;22;20237;-90
2022/03/18 01:35:48;;;;;;;31.83;13.37;;;;;;;;;;6321062;22;20217;-88
2022/03/18 01:38:53;;;;;;;32.03;13.47;;;;;;;;;;6304549;22;20165;-89
2022/03/18 01:41:58;;;;;;;30.77;13.80;;;;;;;;;;6302142;22;20243;-92
2022/03/18 01:45:07;;;;;;;31.63;14.10;;;;;;;;;;6301404;22;20169;-89
2022/03/18 01:48:13;;;;;;;33.03;15.03;;;;;;;;;;6301877;22;20181;-89
2022/03/18 01:51:18;;;;;;;32.57;14.20;;;;;;;;;;6302963;22;20173;-90
2022/03/18 01:57:46;;;;;;;37.10;14.63;;;;;;;;;;6303147;22;20551;-90
2022/03/18 02:00:52;;;;;;;33.27;14.00;;;;;;;;;;6319405;22;20269;-87
2022/03/18 02:03:59;;;;;;;31.37;13.70;;;;;;;;;;6302764;22;20176;-90
2022/03/18 02:07:05;;;;;;;35.33;15.43;;;;;;;;;;6301584;22;20160;-90
2022/03/18 02:10:10;;;;;;;34.87;14.43;;;;;;;;;;6303847;22;20168;-91
2022/03/18 02:13:15;;;;;;;35.13;14.97;;;;;;;;;;6302744;22;20165;-90
2022/03/18 02:16:22;;;;;;;30.73;14.03;;;;;;;;;;6302918;22;20259;-89
2022/03/18 02:19:27;;;;;;;31.67;13.53;;;;;;;;;;6303580;22;20620;-87
2022/03/18 02:22:36;;;;;;;30.10;12.70;;;;;;;;;;6302909;22;20312;-90
2022/03/18 02:25:42;;;;;;;30.90;13.53;;;;;;;;;;6302403;22;20145;-89
2022/03/18 02:28:47;;;;;;;35.50;12.93;;;;;;;;;;6300827;22;20184;-89
2022/03/18 02:31:52;;;;;;;28.20;13.63;;;;;;;;;;6300928;22;20227;-90
2022/03/18 02:35:01;;;;;;;29.43;13.47;;;;;;;;;;6300378;22;20168;-89
2022/03/18 02:38:07;;;;;;;28.67;13.20;;;;;;;;;;6301894;22;20292;-88
2022/03/18 02:41:12;;;;;;;29.17;12.90;;;;;;;;;;6300887;22;20632;-91
2022/03/18 02:44:17;;;;;;;34.03;14.47;;;;;;;;;;6300933;22;20169;-92
2022/03/18 02:47:24;;;;;;;27.97;13.17;;;;;;;;;;6300682;22;20169;-88
2022/03/18 02:50:29;;;;;;;30.80;13.93;;;;;;;;;;6300387;22;20169;-88
2022/03/18 02:53:35;;;;;;;34.23;14.40;;;;;;;;;;6301618;22;20237;-90
2022/03/18 02:56:41;;;;;;;29.33;14.13;;;;;;;;;;6302077;22;20149;-89
2022/03/18 02:59:46;;;;;;;31.43;13.53;;;;;;;;;;6301815;22;20161;-89
2022/03/18 03:02:51;;;;;;;33.57;14.10;;;;;;;;;;6302218;22;20193;-91
2022/03/18 03:09:21;;;;;;;31.93;14.57;;;;;;;;;;6301714;22;20171;-91
2022/03/18 03:12:26;;;;;;;31.47;13.40;;;;;;;;;;6301896;22;20149;-90
2022/03/18 03:15:32;;;;;;;34.10;14.53;;;;;;;;;;6301459;22;20612;-91
2022/03/18 03:18:37;;;;;;;30.57;13.97;;;;;;;;;;6300838;22;20255;-89
2022/03/18 03:21:42;;;;;;;31.17;14.37;;;;;;;;;;6299655;22;20165;-89
2022/03/18 03:24:51;;;;;;;31.23;14.43;;;;;;;;;;6298456;22;20196;-89
2022/03/18 03:27:57;;;;;;;29.13;14.00;;;;;;;;;;6297326;22;20568;-86
2022/03/18 03:31:02;;;;;;;32.60;15.30;;;;;;;;;;6298744;22;20165;-90
2022/03/18 03:34:07;;;;;;;28.83;13.90;;;;;;;;;;6298228;22;20239;-91
2022/03/18 03:37:12;;;;;;;33.20;14.87;;;;;;;;;;6298372;22;20283;-88
2022/03/18 03:40:19;;;;;;;36.20;14.87;;;;;;;;;;6297209;22;20196;-90
2022/03/18 03:43:24;;;;;;;36.63;14.97;;;;;;;;;;6296196;22;20188;-88
2022/03/18 03:46:33;;;;;;;36.27;15.47;;;;;;;;;;6298819;22;20167;-88
2022/03/18 03:49:38;;;;;;;30.53;14.33;;;;;;;;;;6297904;22;20283;-88
2022/03/18 03:52:44;;;;;;;36.10;15.20;;;;;;;;;;6298400;22;20183;-89
2022/03/18 03:55:50;;;;;;;33.73;14.87;;;;;;;;;;6299024;22;20237;-89
2022/03/18 03:58:56;;;;;;;31.60;14.13;;;;;;;;;;6298715;22;20196;-90
2022/03/18 04:02:02;;;;;;;36.50;15.00;;;;;;;;;;6299933;22;20225;-89
2022/03/18 04:05:08;;;;;;;34.27;13.73;;;;;;;;;;6298754;22;20165;-89
2022/03/18 04:08:13;;;;;;;32.30;14.50;;;;;;;;;;6298461;22;20511;-89
2022/03/18 04:11:21;;;;;;;34.63;15.40;;;;;;;;;;6299541;22;20236;-89
2022/03/18 04:14:26;;;;;;;32.40;14.40;;;;;;;;;;6298357;22;20165;-90
2022/03/18 04:17:37;;;;;;;38.10;15.07;;;;;;;;;;6297204;22;20169;-88
2022/03/18 04:20:42;;;;;;;36.50;15.43;;;;;;;;;;6298788;22;20169;-90
2022/03/18 04:23:47;;;;;;;33.20;14.80;;;;;;;;;;6298007;22;20189;-86
2022/03/18 04:26:53;;;;;;;38.23;15.17;;;;;;;;;;6298591;22;20213;-87
2022/03/18 04:29:58;;;;;;;35.90;15.37;;;;;;;;;;6299598;22;20173;-89
2022/03/18 04:33:03;;;;;;;35.40;15.57;;;;;;;;;;6299150;22;20504;-89
2022/03/18 04:36:12;;;;;;;39.90;15.07;;;;;;;;;;6299913;22;20188;-90
2022/03/18 04:39:17;;;;;;;34.93;15.57;;;;;;;;;;6300613;22;20168;-88
2022/03/18 04:42:26;;;;;;;35.70;15.27;;;;;;;;;;6300224;22;20245;-87
2022/03/18 04:45:35;;;;;;;37.53;15.40;;;;;;;;;;6300659;22;20169;-89
2022/03/18 04:48:48;;;;;;;36.80;15.63;;;;;;;;;;6301562;22;20168;-90
2022/03/18 04:51:53;;;;;;;32.30;14.73;;;;;;;;;;6300954;22;20173;-89
2022/03/18 04:54:57;;;;;;;34.07;15.23;;;;;;;;;;6300682;22;20144;-90
2022/03/18 04:58:04;;;;;;;34.97;15.20;;;;;;;;;;6301231;22;20170;-89
2022/03/18 05:01:09;;;;;;;37.10;15.93;;;;;;;;;;6300974;22;20169;-91
2022/03/18 05:04:14;;;;;;;35.13;15.10;;;;;;;;;;6302507;22;20194;-89
2022/03/18 05:07:19;;;;;;;36.30;14.90;;;;;;;;;;6301007;22;20283;-88
2022/03/18 05:10:24;;;;;;;32.80;15.63;;;;;;;;;;6300872;22;20188;-89
2022/03/18 05:13:31;;;;;;;34.47;15.20;;;;;;;;;;6300179;22;20176;-89
2022/03/18 05:16:39;;;;;;;33.93;15.43;;;;;;;;;;6299832;22;20503;-89
2022/03/18 05:19:44;;;;;;;37.07;14.97;;;;;;;;;;6299552;22;20177;-89
2022/03/18 05:22:51;;;;;;;29.97;13.57;;;;;;;;;;6299420;22;20616;-89
2022/03/18 05:25:56;;;;;;;37.63;15.47;;;;;;;;;;6299635;22;20168;-89
2022/03/18 05:29:02;;;;;;;31.53;14.53;;;;;;;;;;6299277;22;20220;-90
2022/03/18 05:32:08;;;;;;;34.20;15.70;;;;;;;;;;6299145;22;20204;-89
2022/03/18 05:35:13;;;;;;;35.10;14.80;;;;;;;;;;6300251;22;20671;-89
2022/03/18 05:38:18;;;;;;;35.17;15.57;;;;;;;;;;6302181;22;20169;-89
2022/03/18 05:41:24;;;;;;;30.17;14.23;;;;;;;;;;6300321;22;20303;-90
2022/03/18 05:44:30;;;;;;;31.37;14.57;;;;;;;;;;6302040;22;20481;-89
2022/03/18 05:47:35;;;;;;;32.57;13.77;;;;;;;;;;6303579;22;20173;-87
2022/03/18 05:50:41;;;;;;;34.53;14.53;;;;;;;;;;6301757;22;20173;-90
2022/03/18 05:53:46;;;;;;;35.93;14.53;;;;;;;;;;6301546;22;20165;-89
2022/03/18 05:56:54;;;;;;;34.90;14.63;;;;;;;;;;6300566;22;20606;-88
2022/03/18 06:00:01;;;;;;;32.80;15.10;;;;;;;;;;6300702;22;20157;-91
2022/03/18 06:03:06;;;;;;;32.93;14.60;;;;;;;;;;6300918;22;20197;-88
2022/03/18 06:06:12;;;;;;;31.70;14.83;;;;;;;;;;6300258;22;20173;-87
2022/03/18 06:12:40;;;;;;;30.20;13.73;;;;;;;;;;6298745;22;20166;-89
2022/03/18 06:15:47;;;;;;;32.57;14.90;;;;;;;;;;6304135;22;20209;-89
2022/03/18 06:18:52;;;;;;;31.80;15.20;;;;;;;;;;6303024;22;20191;-89
2022/03/18 06:21:58;;;;;;;32.93;14.80;;;;;;;;;;6309744;22;20172;-88
2022/03/18 06:25:04;;;;;;;34.10;13.97;;;;;;;;;;6303314;22;20172;-87
2022/03/18 06:28:08;;;;;;;33.50;15.20;;;;;;;;;;6301841;22;20164;-91
2022/03/18 06:31:17;;;;;;;31.80;13.80;;;;;;;;;;6304123;22;20502;-90
2022/03/18 06:34:24;;;;;;;30.50;14.17;;;;;;;;;;6305055;22;20161;-89
2022/03/18 06:37:30;;;;;;;31.67;13.90;;;;;;;;;;6305712;22;20161;-88
2022/03/18 06:40:36;;;;;;;32.20;14.30;;;;;;;;;;6305016;22;20195;-88
2022/03/18 06:43:42;;;;;;;30.83;14.03;;;;;;;;;;6306971;22;20193;-90
2022/03/18 06:46:48;;;;;;;34.20;14.27;;;;;;;;;;6303255;22;20172;-89
2022/03/18 06:49:54;;;;;;;36.33;15.23;;;;;;;;;;6302898;22;20258;-89
2022/03/18 06:52:59;;;;;;;32.43;14.73;;;;;;;;;;6303285;22;20605;-88
2022/03/18 06:56:05;;;;;;;34.13;14.00;;;;;;;;;;6300453;22;20188;-88
2022/03/18 06:59:11;;;;;;;43.37;15.23;;;;;;;;;;6299520;22;20169;-89
2022/03/18 07:02:17;;;;;;;31.13;15.23;;;;;;;;;;6300071;22;20173;-90
2022/03/18 07:05:23;;;;;;;33.27;14.93;;;;;;;;;;6303420;22;20192;-89
2022/03/18 07:08:28;;;;;;;34.07;15.10;;;;;;;;;;6301909;22;20173;-90
2022/03/18 07:11:33;;;;;;;33.33;14.80;;;;;;;;;;6300480;22;20511;-90
2022/03/18 07:14:39;;;;;;;29.50;14.40;;;;;;;;;;6300394;22;20228;-92
2022/03/18 07:21:07;;;;;;;33.23;14.60;;;;;;;;;;6303833;22;20157;-90
2022/03/18 07:24:12;;;;;;;30.70;14.43;;;;;;;;;;6321870;22;20187;-89
2022/03/18 07:27:17;;;;;;;38.60;14.83;;;;;;;;;;6300721;22;20169;-90
2022/03/18 07:30:23;;;;;;;42.40;15.43;;;;;;;;;;6300394;22;20173;-91
2022/03/18 07:33:30;;;;;;;32.80;14.97;;;;;;;;;;6302844;22;20181;-90
2022/03/18 07:36:35;;;;;;;31.77;14.50;;;;;;;;;;6301325;22;20172;-89
2022/03/18 07:39:39;;;;;;;33.33;14.83;;;;;;;;;;6300099;22;20176;-89
2022/03/18 07:42:45;;;;;;;31.77;14.43;;;;;;;;;;6299839;22;20175;-90
2022/03/18 07:45:49;;;;;;;31.63;13.80;;;;;;;;;;6300482;22;20164;-91
2022/03/18 07:48:56;;;;;;;30.27;13.53;;;;;;;;;;6302323;22;20180;-91
2022/03/18 07:52:01;;;;;;;30.80;13.87;;;;;;;;;;6298688;22;20211;-90
2022/03/18 07:55:07;;;;;;;27.70;13.73;;;;;;;;;;6299545;22;20223;-91
2022/03/18 07:58:13;;;;;;;32.60;13.77;;;;;;;;;;6300683;22;20168;-92
2022/03/18 08:01:17;;;;;;;32.93;14.83;;;;;;;;;;6301997;22;20218;-90
2022/03/18 08:04:24;;;;;;;34.80;15.17;;;;;;;;;;6302892;22;20249;-91
2022/03/18 08:07:29;;;;;;;42.53;17.70;;;;;;;;;;6302191;22;20165;-90
2022/03/18 08:10:35;;;;;;;36.83;15.37;;;;;;;;;;6302793;22;20164;-90
2022/03/18 08:13:41;;;;;;;31.80;14.50;;;;;;;;;;6303282;22;20176;-90
2022/03/18 08:16:49;;;;;;;29.97;14.97;;;;;;;;;;6303306;22;20223;-90
2022/03/18 08:19:56;;;;;;;32.90;14.50;;;;;;;;;;6300729;22;20241;-89
2022/03/18 08:23:01;;;;;;;33.60;15.13;;;;;;;;;;6302825;22;20244;-90
2022/03/18 08:26:06;;;;;;;34.10;15.37;;;;;;;;;;6301787;22;20161;-89
2022/03/18 08:29:11;;;;;;;38.57;14.17;;;;;;;;;;6303400;22;20169;-89
2022/03/18 08:32:17;;;;;;;33.05;14.98;;;;;;;;;;6303513;22;20251;-89
2022/03/18 08:35:24;;;;;;;38.42;15.60;;;;;;;;;;6303703;22;20230;-90
2022/03/18 08:38:29;;;;;;;31.35;15.60;;;;;;;;;;6302991;22;20169;-89
2022/03/18 08:41:36;;;;;;;37.42;15.50;;;;;;;;;;6305183;22;20189;-90
2022/03/18 08:44:40;;;;;;;38.30;15.75;;;;;;;;;;6301944;22;20188;-90
2022/03/18 08:47:46;;;;;;;31.13;15.32;;;;;;;;;;6301309;22;20280;-88
2022/03/18 08:50:53;;;;;;;30.85;15.00;;;;;;;;;;6322672;22;20227;-91
2022/03/18 08:53:58;;;;;;;38.92;16.55;;;;;;;;;;6300825;22;20714;-90
2022/03/18 08:57:03;;;;;;;36.58;17.02;;;;;;;;;;6302618;22;20212;-90
2022/03/18 09:00:10;;;;;;;39.78;16.73;;;;;;;;;;6300836;22;20169;-91
2022/03/18 09:03:18;;;;;;;42.70;17.95;;;;;;;;;;6302625;22;20168;-91
2022/03/18 09:06:26;;;;;;;52.78;18.50;;;;;;;;;;6322194;22;20208;-90
2022/03/18 09:09:31;;;;;;;41.30;18.17;;;;;;;;;;6302492;22;20169;-91
2022/03/18 09:12:36;;;;;;;39.45;18.98;;;;;;;;;;6300645;22;20168;-89
2022/03/18 09:15:41;;;;;;;38.67;18.25;;;;;;;;;;6301153;22;20176;-90
2022/03/18 09:18:46;;;;;;;41.65;18.20;;;;;;;;;;6301452;22;20227;-90
2022/03/18 09:21:52;;;;;;;34.60;17.20;;;;;;;;;;6299226;22;20247;-90
2022/03/18 09:24:57;;;;;;;42.67;19.00;;;;;;;;;;6300556;22;20671;-90
2022/03/18 09:28:03;;;;;;;37.85;18.83;;;;;;;;;;6302010;22;20169;-91
2022/03/18 09:31:08;;;;;;;44.45;18.75;;;;;;;;;;6299608;22;20161;-89
2022/03/18 09:34:13;;;;;;;40.15;18.70;;;;;;;;;;6299586;22;20173;-90
2022/03/18 09:37:19;;;;;;;38.38;19.60;;;;;;;;;;6300000;22;20164;-91
2022/03/18 09:40:24;;;;;;;36.38;17.50;;;;;;;;;;6300109;22;20197;-91
